Terminal Aerodrome Forecast
Issued by NWS

Home | Current Version | Previous Version | Text Only | Print | Product List | Glossary Off
Versions: 1 2 3 4 5 6 7 8 9 10 11 12 13 14 15 16 17 18 19 20

000
FTUS41 KCLE 261100
TAFFDY
TAF
KFDY 261134Z 2612/2712 05012KT 5SM -SN OVC035
     FM261400 03010KT 2SM -SN OVC025
     FM261800 02010KT 6SM -SN OVC015
     FM262000 36008KT P6SM OVC025=

USA.gov is the U.S. government's official web portal to all federal, state and local government web resources and services.